Time;durP1;ratioP1;P1;durP2;ratioP2;P2;SDS_P1;SDS_P2;PMS_P1;PMS_P2;Temp;Humidity;BMP_temperature;BMP_pressure;BME280_temperature;BME280_humidity;BME280_pressure;Samples;Min_cycle;Max_cycle;Signal;HPM_P1;HPM_P2
2021/07/21 00:00:27;;;;;;;15.27;10.38;;;;;;;;;;5027275;28;20209;-69
2021/07/21 00:02:53;;;;;;;15.60;10.50;;;;;;;;;;5024352;28;20533;-69
2021/07/21 00:05:21;;;;;;;15.55;10.43;;;;;;;;;;5007982;28;20188;-69
2021/07/21 00:07:46;;;;;;;18.60;10.40;;;;;;;;;;5022934;28;20182;-69
2021/07/21 00:10:15;;;;;;;15.50;10.88;;;;;;;;;;5026581;28;20183;-69
2021/07/21 00:15:27;;;;;;;16.88;11.52;;;;;;;;;;5010165;28;20715;-69
2021/07/21 00:18:04;;;;;;;17.15;11.05;;;;;;;;;;5025227;28;20200;-69
2021/07/21 00:20:31;;;;;;;19.27;11.57;;;;;;;;;;5013838;28;20661;-69
2021/07/21 00:22:57;;;;;;;16.33;11.63;;;;;;;;;;5029868;28;20285;-69
2021/07/21 00:25:23;;;;;;;17.67;11.63;;;;;;;;;;5015864;28;20280;-69
2021/07/21 00:27:49;;;;;;;16.85;11.65;;;;;;;;;;5021261;28;20185;-69
2021/07/21 00:30:16;;;;;;;16.23;11.50;;;;;;;;;;5010101;28;20187;-69
2021/07/21 00:32:42;;;;;;;17.92;10.82;;;;;;;;;;5026066;28;20190;-69
2021/07/21 00:35:10;;;;;;;16.60;11.23;;;;;;;;;;5021544;28;20244;-69
2021/07/21 00:37:36;;;;;;;18.15;11.55;;;;;;;;;;5016098;28;20222;-69
2021/07/21 00:40:03;;;;;;;22.25;11.88;;;;;;;;;;5020714;28;20213;-69
2021/07/21 00:42:29;;;;;;;17.95;11.68;;;;;;;;;;5013870;28;20233;-69
2021/07/21 00:44:54;;;;;;;18.98;12.75;;;;;;;;;;5022003;28;20185;-69
2021/07/21 00:47:20;;;;;;;17.55;12.23;;;;;;;;;;5019603;28;20543;-69
2021/07/21 00:49:45;;;;;;;19.23;11.77;;;;;;;;;;5020497;28;20185;-69
2021/07/21 00:52:11;;;;;;;18.52;12.05;;;;;;;;;;5010566;28;20268;-70
2021/07/21 00:54:36;;;;;;;18.98;12.52;;;;;;;;;;5020034;28;20258;-69
2021/07/21 00:57:04;;;;;;;18.65;12.32;;;;;;;;;;5018396;28;20642;-69
2021/07/21 00:59:33;;;;;;;17.58;12.10;;;;;;;;;;5036063;28;20228;-70
2021/07/21 01:01:58;;;;;;;17.25;12.68;;;;;;;;;;5011838;28;20206;-70
2021/07/21 01:04:24;;;;;;;16.95;11.30;;;;;;;;;;5022537;28;20178;-69
2021/07/21 01:06:50;;;;;;;18.23;12.85;;;;;;;;;;5026021;28;20270;-69
2021/07/21 01:09:16;;;;;;;19.40;12.45;;;;;;;;;;5014464;28;20695;-69
2021/07/21 01:12:00;;;;;;;19.23;13.23;;;;;;;;;;5017494;28;20190;-69
2021/07/21 01:14:54;;;;;;;20.52;12.30;;;;;;;;;;5015836;28;20537;-69
2021/07/21 01:17:29;;;;;;;17.77;11.18;;;;;;;;;;5024242;28;20251;-69
2021/07/21 01:20:32;;;;;;;16.58;11.43;;;;;;;;;;5019769;28;20268;-69
2021/07/21 01:23:11;;;;;;;17.73;11.85;;;;;;;;;;5017232;28;20220;-69
2021/07/21 01:25:50;;;;;;;17.17;12.20;;;;;;;;;;5033443;28;20201;-69
2021/07/21 01:28:15;;;;;;;16.63;11.82;;;;;;;;;;5013314;28;20221;-69
2021/07/21 01:30:42;;;;;;;15.88;11.40;;;;;;;;;;5023033;28;20213;-69
2021/07/21 01:33:10;;;;;;;17.23;11.68;;;;;;;;;;5025763;28;20190;-69
2021/07/21 01:35:53;;;;;;;17.50;12.20;;;;;;;;;;5014654;28;20202;-69
2021/07/21 01:38:24;;;;;;;19.10;11.60;;;;;;;;;;5030246;28;20628;-69
2021/07/21 01:40:57;;;;;;;21.77;13.80;;;;;;;;;;5020278;28;20190;-69
2021/07/21 01:43:26;;;;;;;22.17;13.00;;;;;;;;;;5024979;28;20952;-69
2021/07/21 01:45:53;;;;;;;19.08;12.73;;;;;;;;;;5018179;28;20612;-69
2021/07/21 01:48:22;;;;;;;20.48;12.85;;;;;;;;;;5026178;28;20252;-69
2021/07/21 01:50:49;;;;;;;20.80;13.50;;;;;;;;;;5007414;28;20187;-69
2021/07/21 01:53:16;;;;;;;18.55;13.13;;;;;;;;;;5034612;28;20228;-69
2021/07/21 01:55:43;;;;;;;20.40;12.93;;;;;;;;;;5015796;28;20597;-69
2021/07/21 01:58:10;;;;;;;21.52;12.52;;;;;;;;;;5028776;28;20213;-69
2021/07/21 02:00:37;;;;;;;20.70;13.05;;;;;;;;;;5015655;28;20551;-69
2021/07/21 02:03:03;;;;;;;20.15;13.90;;;;;;;;;;5029201;28;20518;-69
2021/07/21 02:05:29;;;;;;;17.95;12.73;;;;;;;;;;5013987;28;20194;-69
2021/07/21 02:07:56;;;;;;;17.10;12.55;;;;;;;;;;5026476;28;20178;-69
2021/07/21 02:10:26;;;;;;;19.25;12.70;;;;;;;;;;5022660;28;20638;-69
2021/07/21 02:12:57;;;;;;;20.35;12.35;;;;;;;;;;5029521;28;20174;-69
2021/07/21 02:15:23;;;;;;;21.40;12.82;;;;;;;;;;5024647;28;20222;-69
2021/07/21 02:17:49;;;;;;;18.92;13.55;;;;;;;;;;5021149;28;20222;-69
2021/07/21 02:20:16;;;;;;;20.67;13.07;;;;;;;;;;5022171;28;20217;-69
2021/07/21 02:22:43;;;;;;;20.83;13.10;;;;;;;;;;5021076;28;20224;-69
2021/07/21 02:25:09;;;;;;;21.92;14.63;;;;;;;;;;5022056;28;20642;-69
2021/07/21 02:27:36;;;;;;;22.58;13.98;;;;;;;;;;5019606;28;20649;-69
2021/07/21 02:30:05;;;;;;;19.38;13.10;;;;;;;;;;5022452;28;20249;-69
2021/07/21 02:32:35;;;;;;;19.00;13.43;;;;;;;;;;5022495;28;20186;-69
2021/07/21 02:35:02;;;;;;;22.80;13.73;;;;;;;;;;5021475;28;20618;-69
2021/07/21 02:37:28;;;;;;;21.15;14.02;;;;;;;;;;5022964;28;20599;-69
2021/07/21 02:39:54;;;;;;;23.15;13.52;;;;;;;;;;5022307;28;20194;-69
2021/07/21 02:42:21;;;;;;;23.67;14.38;;;;;;;;;;5022953;28;20281;-69
2021/07/21 02:44:48;;;;;;;23.65;14.95;;;;;;;;;;5023363;28;20235;-69
2021/07/21 02:47:15;;;;;;;24.20;13.82;;;;;;;;;;5018350;28;20213;-69
2021/07/21 02:49:43;;;;;;;24.77;13.80;;;;;;;;;;5012344;28;20225;-69
2021/07/21 02:52:23;;;;;;;23.23;13.32;;;;;;;;;;5019172;28;20645;-69
2021/07/21 02:54:49;;;;;;;20.42;13.88;;;;;;;;;;5015087;28;20212;-69
2021/07/21 02:57:36;;;;;;;23.13;14.02;;;;;;;;;;5029794;28;20197;-69
2021/07/21 03:00:10;;;;;;;21.52;12.95;;;;;;;;;;5014098;28;20218;-69
2021/07/21 03:02:37;;;;;;;21.80;12.52;;;;;;;;;;5027081;28;20221;-69
2021/07/21 03:05:04;;;;;;;21.90;13.45;;;;;;;;;;5017475;28;20212;-69
2021/07/21 03:07:30;;;;;;;21.05;13.73;;;;;;;;;;5025952;28;20198;-69
2021/07/21 03:09:57;;;;;;;20.02;13.15;;;;;;;;;;5021132;28;20665;-69
2021/07/21 03:12:27;;;;;;;22.13;13.68;;;;;;;;;;5026325;28;20183;-69
2021/07/21 03:14:54;;;;;;;21.23;13.93;;;;;;;;;;5017728;28;20291;-69
2021/07/21 03:17:22;;;;;;;19.48;13.45;;;;;;;;;;5020007;28;20221;-69
2021/07/21 03:19:52;;;;;;;24.85;15.15;;;;;;;;;;5019443;28;20236;-69
2021/07/21 03:22:22;;;;;;;23.92;15.52;;;;;;;;;;5016379;28;20202;-69
2021/07/21 03:24:48;;;;;;;28.83;16.00;;;;;;;;;;5016297;28;20608;-69
2021/07/21 03:27:15;;;;;;;27.77;15.70;;;;;;;;;;5021170;28;20186;-69
2021/07/21 03:29:41;;;;;;;26.17;15.55;;;;;;;;;;5015712;28;20182;-69
2021/07/21 03:32:07;;;;;;;26.23;15.73;;;;;;;;;;5025944;28;20736;-69
2021/07/21 03:34:36;;;;;;;27.75;16.50;;;;;;;;;;5027844;28;20178;-69
2021/07/21 03:37:03;;;;;;;26.00;16.67;;;;;;;;;;5012599;28;20179;-69
2021/07/21 03:39:29;;;;;;;25.35;15.75;;;;;;;;;;5022464;28;20186;-69
2021/07/21 03:41:55;;;;;;;26.73;14.95;;;;;;;;;;5017213;28;20625;-69
2021/07/21 03:44:23;;;;;;;26.38;16.50;;;;;;;;;;5020480;28;20185;-69
2021/07/21 03:46:49;;;;;;;22.05;13.85;;;;;;;;;;5012181;28;20249;-69
2021/07/21 03:49:18;;;;;;;21.95;14.05;;;;;;;;;;5018155;28;20670;-69
2021/07/21 03:51:43;;;;;;;21.17;14.00;;;;;;;;;;5019847;28;20182;-69
2021/07/21 03:54:11;;;;;;;25.35;14.52;;;;;;;;;;5022704;28;20233;-69
2021/07/21 03:56:42;;;;;;;21.15;14.23;;;;;;;;;;5017347;28;20193;-69
2021/07/21 03:59:08;;;;;;;23.88;14.07;;;;;;;;;;5025696;28;20181;-69
2021/07/21 04:01:35;;;;;;;21.60;13.60;;;;;;;;;;5012553;28;20209;-69
2021/07/21 04:04:02;;;;;;;25.70;13.80;;;;;;;;;;5025867;28;20209;-69
2021/07/21 04:06:33;;;;;;;19.17;13.07;;;;;;;;;;5011785;28;20201;-69
2021/07/21 04:09:05;;;;;;;26.40;14.48;;;;;;;;;;5027568;28;20194;-69
2021/07/21 04:11:34;;;;;;;24.15;14.35;;;;;;;;;;5012056;28;20239;-69
2021/07/21 04:14:02;;;;;;;24.88;15.40;;;;;;;;;;5026936;28;20632;-69
2021/07/21 04:16:30;;;;;;;24.70;14.60;;;;;;;;;;5022701;28;20693;-69
2021/07/21 04:18:55;;;;;;;21.33;13.98;;;;;;;;;;5020583;28;20182;-69
2021/07/21 04:21:21;;;;;;;20.33;13.05;;;;;;;;;;5026506;28;20192;-69
2021/07/21 04:23:48;;;;;;;21.70;13.63;;;;;;;;;;5015723;28;20191;-69
2021/07/21 04:26:15;;;;;;;20.27;12.93;;;;;;;;;;5025996;28;20232;-69
2021/07/21 04:28:40;;;;;;;19.92;12.25;;;;;;;;;;5014351;28;20559;-69
2021/07/21 04:31:06;;;;;;;19.90;12.82;;;;;;;;;;5017143;28;20183;-69
2021/07/21 04:33:33;;;;;;;21.35;13.27;;;;;;;;;;5012197;28;20194;-69
2021/07/21 04:35:59;;;;;;;20.10;13.45;;;;;;;;;;5021310;28;20594;-69
2021/07/21 04:38:24;;;;;;;18.77;13.70;;;;;;;;;;5015482;28;20182;-69
2021/07/21 04:40:51;;;;;;;23.20;14.73;;;;;;;;;;5023174;28;20189;-69
2021/07/21 04:43:16;;;;;;;22.58;14.90;;;;;;;;;;5015970;28;20271;-69
2021/07/21 04:45:45;;;;;;;25.20;14.80;;;;;;;;;;5017842;28;20191;-69
2021/07/21 04:48:12;;;;;;;19.75;13.30;;;;;;;;;;5036772;28;20192;-69
2021/07/21 04:50:38;;;;;;;21.65;14.50;;;;;;;;;;5010194;28;20269;-69
2021/07/21 04:53:03;;;;;;;21.58;15.13;;;;;;;;;;5022192;28;20690;-69
2021/07/21 04:55:28;;;;;;;22.70;15.40;;;;;;;;;;5013580;28;20237;-69
2021/07/21 04:57:54;;;;;;;29.80;16.10;;;;;;;;;;5025621;28;20178;-69
2021/07/21 05:00:19;;;;;;;22.75;15.80;;;;;;;;;;5009106;28;20210;-69
2021/07/21 05:02:44;;;;;;;27.40;17.20;;;;;;;;;;5021056;28;20237;-69
2021/07/21 05:05:10;;;;;;;27.40;16.83;;;;;;;;;;5009856;28;20232;-69
2021/07/21 05:07:36;;;;;;;26.13;17.27;;;;;;;;;;5021451;28;20178;-69
2021/07/21 05:10:01;;;;;;;26.33;15.85;;;;;;;;;;5009327;28;20561;-69
2021/07/21 05:12:26;;;;;;;26.25;16.50;;;;;;;;;;5028982;28;20182;-69
2021/07/21 05:14:52;;;;;;;22.13;14.88;;;;;;;;;;5010112;28;20197;-69
2021/07/21 05:17:17;;;;;;;25.83;16.55;;;;;;;;;;5021477;28;20174;-69
2021/07/21 05:19:42;;;;;;;25.88;15.65;;;;;;;;;;5019178;28;20201;-69
2021/07/21 05:22:08;;;;;;;27.63;16.88;;;;;;;;;;5020814;28;20921;-69
2021/07/21 05:24:33;;;;;;;26.33;17.20;;;;;;;;;;5018103;28;20605;-69
2021/07/21 05:26:59;;;;;;;26.88;17.20;;;;;;;;;;5018001;28;20198;-69
2021/07/21 05:29:24;;;;;;;26.27;17.95;;;;;;;;;;5020491;28;20765;-69
2021/07/21 05:31:49;;;;;;;25.67;17.95;;;;;;;;;;5017732;28;20231;-69
2021/07/21 05:34:15;;;;;;;25.10;17.23;;;;;;;;;;5017813;28;20258;-69
2021/07/21 05:36:40;;;;;;;26.30;17.00;;;;;;;;;;5014235;28;20194;-69
2021/07/21 05:39:09;;;;;;;24.27;17.23;;;;;;;;;;5022192;28;20189;-69
2021/07/21 05:41:34;;;;;;;26.60;17.55;;;;;;;;;;5021202;28;20553;-69
2021/07/21 05:44:00;;;;;;;25.85;16.77;;;;;;;;;;5018723;28;20190;-69
2021/07/21 05:46:25;;;;;;;26.35;16.67;;;;;;;;;;5025608;28;20693;-69
2021/07/21 05:48:51;;;;;;;26.52;16.55;;;;;;;;;;5017486;28;20217;-69
2021/07/21 05:51:16;;;;;;;26.95;15.00;;;;;;;;;;5020730;28;20183;-69
2021/07/21 05:53:41;;;;;;;24.13;15.02;;;;;;;;;;5011534;28;20246;-69
2021/07/21 05:56:11;;;;;;;23.48;15.60;;;;;;;;;;5029072;28;20213;-69
2021/07/21 05:58:37;;;;;;;25.20;15.85;;;;;;;;;;5012171;28;20186;-69
2021/07/21 06:01:02;;;;;;;25.15;16.95;;;;;;;;;;5027300;28;20251;-70
2021/07/21 06:03:27;;;;;;;25.17;17.45;;;;;;;;;;5013191;28;20708;-69
2021/07/21 06:05:53;;;;;;;24.92;17.52;;;;;;;;;;5030553;28;20190;-69
2021/07/21 06:08:18;;;;;;;28.40;18.02;;;;;;;;;;5016086;28;20199;-69
2021/07/21 06:10:44;;;;;;;29.08;17.98;;;;;;;;;;5025575;28;20224;-67
2021/07/21 06:13:11;;;;;;;26.80;17.52;;;;;;;;;;5012910;28;20667;-67
2021/07/21 06:15:38;;;;;;;29.52;18.33;;;;;;;;;;5031514;28;20185;-69
2021/07/21 06:18:04;;;;;;;26.20;16.98;;;;;;;;;;5014055;28;20205;-69
2021/07/21 06:20:29;;;;;;;28.65;18.23;;;;;;;;;;5029734;28;20186;-69
2021/07/21 06:22:55;;;;;;;23.73;16.77;;;;;;;;;;5020000;28;20674;-69
2021/07/21 06:25:20;;;;;;;25.67;16.85;;;;;;;;;;5021473;28;20194;-69
2021/07/21 06:27:46;;;;;;;25.17;17.85;;;;;;;;;;5022232;28;20642;-69
2021/07/21 06:30:12;;;;;;;28.20;16.42;;;;;;;;;;5021424;28;20198;-67
2021/07/21 06:32:38;;;;;;;25.98;17.33;;;;;;;;;;5020394;28;20193;-67
2021/07/21 06:35:05;;;;;;;34.15;17.05;;;;;;;;;;5023211;28;20194;-69
2021/07/21 06:37:30;;;;;;;28.85;17.75;;;;;;;;;;5021616;28;20174;-69
2021/07/21 06:39:56;;;;;;;27.60;17.70;;;;;;;;;;5016294;28;20189;-69
2021/07/21 06:42:21;;;;;;;25.58;16.95;;;;;;;;;;5024983;28;20209;-69
2021/07/21 06:44:46;;;;;;;24.73;17.05;;;;;;;;;;5018145;28;20186;-69
2021/07/21 06:47:12;;;;;;;23.50;16.75;;;;;;;;;;5023522;28;20224;-69
2021/07/21 06:49:38;;;;;;;23.02;16.83;;;;;;;;;;5016869;28;20637;-69
2021/07/21 06:52:04;;;;;;;25.05;16.55;;;;;;;;;;5021090;28;20185;-69
2021/07/21 06:54:29;;;;;;;25.55;16.65;;;;;;;;;;5026572;28;20186;-69
2021/07/21 06:56:54;;;;;;;23.27;15.75;;;;;;;;;;5015731;28;20177;-69
2021/07/21 06:59:20;;;;;;;25.55;16.73;;;;;;;;;;5055013;28;20202;-69
2021/07/21 07:01:45;;;;;;;27.23;17.20;;;;;;;;;;5014874;28;20205;-69
2021/07/21 07:04:10;;;;;;;34.15;16.77;;;;;;;;;;5031603;28;20955;-69
2021/07/21 07:06:37;;;;;;;27.08;16.65;;;;;;;;;;5013941;28;20218;-69
2021/07/21 07:09:03;;;;;;;24.63;17.23;;;;;;;;;;5027615;28;20186;-69
2021/07/21 07:11:29;;;;;;;27.20;17.35;;;;;;;;;;5012235;28;20538;-69
2021/07/21 07:13:54;;;;;;;27.08;17.20;;;;;;;;;;5027534;28;20240;-69
2021/07/21 07:16:19;;;;;;;23.42;16.75;;;;;;;;;;5015484;28;20236;-69
2021/07/21 07:18:45;;;;;;;27.10;16.80;;;;;;;;;;5036765;28;20190;-69
2021/07/21 07:21:10;;;;;;;24.98;16.50;;;;;;;;;;5012039;28;20189;-69
2021/07/21 07:23:36;;;;;;;27.88;17.40;;;;;;;;;;5026968;28;20220;-69
2021/07/21 07:26:03;;;;;;;24.35;17.33;;;;;;;;;;5023884;28;20243;-69
2021/07/21 07:28:28;;;;;;;25.02;17.17;;;;;;;;;;5011844;28;20596;-69
2021/07/21 07:30:54;;;;;;;28.75;17.58;;;;;;;;;;5021941;28;20205;-69
2021/07/21 07:33:19;;;;;;;24.23;16.77;;;;;;;;;;5014805;28;20298;-69
2021/07/21 07:35:44;;;;;;;21.88;15.30;;;;;;;;;;5027476;28;20268;-69
2021/07/21 07:38:11;;;;;;;20.58;15.10;;;;;;;;;;5012377;28;20181;-69
2021/07/21 07:40:40;;;;;;;25.60;16.27;;;;;;;;;;5022034;28;20185;-69
2021/07/21 07:43:06;;;;;;;26.77;16.55;;;;;;;;;;5008890;28;20579;-69
2021/07/21 07:45:31;;;;;;;24.75;16.50;;;;;;;;;;5021284;28;20189;-69
2021/07/21 07:47:57;;;;;;;23.15;15.70;;;;;;;;;;5008734;28;20634;-69
2021/07/21 07:50:23;;;;;;;24.83;16.40;;;;;;;;;;5023412;28;20657;-69
2021/07/21 07:52:48;;;;;;;23.65;15.90;;;;;;;;;;5017404;28;20230;-69
2021/07/21 07:55:14;;;;;;;21.02;15.38;;;;;;;;;;5026989;28;20186;-69
2021/07/21 07:57:39;;;;;;;20.75;14.68;;;;;;;;;;5028331;28;20213;-69
2021/07/21 08:00:07;;;;;;;23.85;15.55;;;;;;;;;;5017893;28;20228;-69
2021/07/21 08:02:32;;;;;;;23.60;15.48;;;;;;;;;;5020045;28;20200;-69
2021/07/21 08:04:58;;;;;;;19.23;13.55;;;;;;;;;;5012281;28;20494;-68
2021/07/21 08:07:25;;;;;;;24.50;14.38;;;;;;;;;;5025398;28;20186;-68
2021/07/21 08:09:51;;;;;;;24.50;14.55;;;;;;;;;;5009421;28;20190;-69
2021/07/21 08:12:16;;;;;;;18.50;13.73;;;;;;;;;;5021797;28;20185;-68
2021/07/21 08:14:41;;;;;;;19.20;12.70;;;;;;;;;;5018699;28;20288;-69
2021/07/21 08:17:07;;;;;;;19.52;12.30;;;;;;;;;;5017688;28;20198;-69
2021/07/21 08:19:32;;;;;;;18.38;12.48;;;;;;;;;;5016195;28;20190;-69
2021/07/21 08:21:58;;;;;;;19.00;12.80;;;;;;;;;;5022318;28;20248;-69
2021/07/21 08:24:24;;;;;;;18.27;12.50;;;;;;;;;;5028953;28;20190;-69
2021/07/21 08:26:49;;;;;;;17.95;12.50;;;;;;;;;;5019368;28;20193;-69
2021/07/21 08:29:15;;;;;;;17.88;12.43;;;;;;;;;;5022655;28;20696;-69
2021/07/21 08:31:41;;;;;;;20.42;12.70;;;;;;;;;;5016156;28;21009;-68
2021/07/21 08:34:08;;;;;;;19.75;12.63;;;;;;;;;;5022193;28;20642;-69
2021/07/21 08:36:35;;;;;;;16.38;11.60;;;;;;;;;;5009559;28;20635;-67
2021/07/21 08:39:01;;;;;;;15.90;11.88;;;;;;;;;;5023772;28;20213;-67
2021/07/21 08:41:27;;;;;;;21.87;11.67;;;;;;;;;;5030816;28;20181;-67
2021/07/21 08:43:53;;;;;;;19.85;12.57;;;;;;;;;;5022862;28;20192;-69
2021/07/21 08:46:19;;;;;;;17.48;11.88;;;;;;;;;;5014924;28;20216;-68
2021/07/21 08:48:44;;;;;;;17.17;11.93;;;;;;;;;;5021900;28;20239;-68
2021/07/21 08:51:10;;;;;;;19.55;11.60;;;;;;;;;;5014207;28;20190;-68
2021/07/21 08:53:37;;;;;;;16.50;11.55;;;;;;;;;;5030699;28;20778;-67
2021/07/21 08:56:04;;;;;;;18.10;11.70;;;;;;;;;;5011593;28;20182;-68
2021/07/21 08:58:30;;;;;;;17.55;11.38;;;;;;;;;;5023037;28;20190;-67
2021/07/21 09:00:55;;;;;;;17.70;12.70;;;;;;;;;;5024071;28;20616;-67
2021/07/21 09:03:21;;;;;;;14.68;11.27;;;;;;;;;;5013730;28;20201;-67
2021/07/21 09:05:49;;;;;;;16.63;11.23;;;;;;;;;;5023291;28;20194;-67
2021/07/21 09:08:15;;;;;;;15.35;11.05;;;;;;;;;;5016781;28;20189;-67
2021/07/21 09:10:42;;;;;;;18.10;11.68;;;;;;;;;;5018501;28;20680;-67
2021/07/21 09:13:07;;;;;;;16.13;11.50;;;;;;;;;;5007919;28;20217;-67
2021/07/21 09:15:33;;;;;;;16.77;12.20;;;;;;;;;;5024183;28;20221;-67
2021/07/21 09:18:16;;;;;;;18.35;12.63;;;;;;;;;;5011085;28;20214;-67
2021/07/21 09:20:47;;;;;;;18.55;11.68;;;;;;;;;;5023071;28;20232;-68
2021/07/21 09:23:13;;;;;;;14.45;11.77;;;;;;;;;;5016544;28;20260;-67
2021/07/21 09:25:40;;;;;;;17.33;12.20;;;;;;;;;;5019165;28;20178;-67
2021/07/21 09:28:08;;;;;;;19.10;12.15;;;;;;;;;;5016077;28;20194;-67
2021/07/21 09:30:35;;;;;;;14.80;11.55;;;;;;;;;;5021566;28;20179;-66
2021/07/21 09:33:05;;;;;;;15.73;11.45;;;;;;;;;;5014887;28;20190;-67
2021/07/21 09:35:36;;;;;;;20.05;12.25;;;;;;;;;;5023626;28;20195;-67
2021/07/21 09:38:06;;;;;;;17.00;12.38;;;;;;;;;;5032440;28;20228;-66
2021/07/21 09:40:32;;;;;;;17.52;12.57;;;;;;;;;;5025554;28;20225;-67
2021/07/21 09:42:58;;;;;;;16.48;12.68;;;;;;;;;;5022295;28;20662;-67
2021/07/21 09:45:24;;;;;;;20.08;13.45;;;;;;;;;;5015747;28;20204;-66
2021/07/21 09:47:55;;;;;;;17.00;12.20;;;;;;;;;;5026297;28;20274;-66
2021/07/21 09:50:23;;;;;;;19.73;13.25;;;;;;;;;;5019264;28;20190;-66
2021/07/21 09:52:52;;;;;;;17.23;11.30;;;;;;;;;;5027933;28;20320;-66
2021/07/21 09:55:18;;;;;;;16.23;12.30;;;;;;;;;;5015036;28;20209;-67
2021/07/21 09:57:59;;;;;;;21.55;12.50;;;;;;;;;;5030494;28;20182;-67
2021/07/21 10:00:26;;;;;;;16.63;11.82;;;;;;;;;;5013899;28;20290;-66
2021/07/21 10:03:12;;;;;;;16.90;11.50;;;;;;;;;;5027024;28;20209;-66
2021/07/21 10:05:54;;;;;;;15.68;10.55;;;;;;;;;;5020702;28;20193;-67
2021/07/21 10:08:31;;;;;;;17.95;11.68;;;;;;;;;;5023013;28;20680;-66
2021/07/21 10:10:58;;;;;;;19.15;12.20;;;;;;;;;;5015294;28;20262;-66
2021/07/21 10:13:24;;;;;;;14.35;11.45;;;;;;;;;;5022607;28;20321;-66
2021/07/21 10:15:54;;;;;;;14.50;10.63;;;;;;;;;;5019239;28;20272;-67
2021/07/21 10:18:20;;;;;;;15.95;10.38;;;;;;;;;;5019283;28;20338;-67
2021/07/21 10:20:46;;;;;;;14.75;10.32;;;;;;;;;;5013951;28;20321;-66
2021/07/21 10:23:16;;;;;;;13.77;9.48;;;;;;;;;;5020714;28;20285;-67
2021/07/21 10:25:42;;;;;;;14.23;9.93;;;;;;;;;;5015893;28;20643;-67
2021/07/21 10:28:08;;;;;;;14.70;10.98;;;;;;;;;;5027765;28;20189;-67
2021/07/21 10:30:36;;;;;;;17.13;12.25;;;;;;;;;;5020033;28;20553;-67
2021/07/21 10:33:03;;;;;;;16.63;11.40;;;;;;;;;;5022120;28;20175;-66
2021/07/21 10:35:30;;;;;;;18.05;10.07;;;;;;;;;;5030979;28;20214;-67
2021/07/21 10:37:56;;;;;;;14.77;10.18;;;;;;;;;;5014514;28;20287;-67
2021/07/21 10:40:27;;;;;;;14.07;10.25;;;;;;;;;;5017973;28;20182;-67
2021/07/21 10:42:55;;;;;;;16.50;10.23;;;;;;;;;;5017044;28;20202;-67
2021/07/21 10:45:23;;;;;;;17.02;10.25;;;;;;;;;;5029990;28;20186;-68
2021/07/21 10:47:50;;;;;;;18.77;11.63;;;;;;;;;;5018302;28;20189;-68
2021/07/21 10:53:44;;;;;;;14.68;10.57;;;;;;;;;;5012766;28;20317;-67
2021/07/21 10:59:12;;;;;;;15.68;10.27;;;;;;;;;;5019311;28;20612;-68
2021/07/21 11:01:51;;;;;;;15.50;10.30;;;;;;;;;;5027738;28;20221;-67
2021/07/21 11:04:19;;;;;;;15.68;10.93;;;;;;;;;;5017134;28;20240;-67
2021/07/21 11:06:47;;;;;;;13.50;10.00;;;;;;;;;;5018821;28;20201;-67
2021/07/21 11:09:18;;;;;;;15.88;10.05;;;;;;;;;;5022782;28;20197;-68
2021/07/21 11:11:44;;;;;;;15.48;10.27;;;;;;;;;;5022281;28;20269;-68
2021/07/21 11:14:25;;;;;;;13.60;10.25;;;;;;;;;;5020637;28;20217;-67
2021/07/21 11:16:55;;;;;;;15.32;11.00;;;;;;;;;;5025233;28;20199;-67
2021/07/21 11:19:34;;;;;;;14.52;10.27;;;;;;;;;;5014800;28;20186;-68
2021/07/21 11:22:03;;;;;;;12.57;9.50;;;;;;;;;;5021125;28;20545;-68
2021/07/21 11:24:30;;;;;;;14.13;8.73;;;;;;;;;;5019366;28;20183;-68
2021/07/21 11:26:56;;;;;;;12.35;8.65;;;;;;;;;;5017972;28;20190;-68
2021/07/21 11:29:24;;;;;;;11.88;9.13;;;;;;;;;;5020409;28;20649;-68
2021/07/21 11:31:49;;;;;;;12.75;9.07;;;;;;;;;;5020820;28;20251;-68
2021/07/21 11:34:32;;;;;;;16.15;10.35;;;;;;;;;;5019465;28;20633;-69
2021/07/21 11:37:05;;;;;;;14.75;9.40;;;;;;;;;;5016220;28;20241;-69
2021/07/21 11:39:54;;;;;;;14.95;10.85;;;;;;;;;;5020791;28;20197;-69
2021/07/21 11:42:22;;;;;;;11.52;9.25;;;;;;;;;;5022022;28;20307;-69
2021/07/21 11:44:49;;;;;;;14.32;9.30;;;;;;;;;;5013665;28;20296;-69
2021/07/21 11:47:15;;;;;;;13.98;9.38;;;;;;;;;;5023965;28;20189;-69
2021/07/21 11:49:49;;;;;;;16.33;8.80;;;;;;;;;;5008837;28;20209;-69
2021/07/21 11:52:17;;;;;;;12.40;9.07;;;;;;;;;;5023048;28;20236;-69
2021/07/21 11:54:42;;;;;;;12.70;8.13;;;;;;;;;;5027753;28;20583;-68
2021/07/21 11:57:09;;;;;;;11.73;7.78;;;;;;;;;;5014275;28;20190;-68
2021/07/21 11:59:42;;;;;;;12.40;8.05;;;;;;;;;;5022098;28;20297;-68
2021/07/21 12:02:11;;;;;;;10.98;7.90;;;;;;;;;;5013019;28;20202;-67
2021/07/21 12:04:41;;;;;;;10.23;7.82;;;;;;;;;;5024858;28;20194;-68
2021/07/21 12:07:07;;;;;;;12.73;8.50;;;;;;;;;;5015710;28;20270;-68
2021/07/21 12:09:37;;;;;;;12.73;9.13;;;;;;;;;;5021873;28;20642;-68
2021/07/21 12:12:08;;;;;;;13.13;9.35;;;;;;;;;;5015105;28;20182;-68
2021/07/21 12:14:34;;;;;;;13.02;9.43;;;;;;;;;;5017041;28;20197;-68
2021/07/21 12:17:12;;;;;;;11.18;8.55;;;;;;;;;;5016307;28;20600;-68
2021/07/21 12:19:39;;;;;;;13.77;9.50;;;;;;;;;;5018644;28;20554;-68
2021/07/21 12:22:09;;;;;;;11.75;8.70;;;;;;;;;;5020283;28;20216;-68
2021/07/21 12:24:51;;;;;;;11.93;8.77;;;;;;;;;;5020300;28;20658;-68
2021/07/21 12:27:30;;;;;;;12.27;8.00;;;;;;;;;;5014980;28;20213;-67
2021/07/21 12:30:13;;;;;;;14.38;9.02;;;;;;;;;;5022335;28;20186;-68
2021/07/21 12:32:40;;;;;;;12.77;9.18;;;;;;;;;;5011304;28;20187;-68
2021/07/21 12:35:07;;;;;;;12.30;9.13;;;;;;;;;;5021933;28;20643;-68
2021/07/21 12:37:37;;;;;;;11.95;8.95;;;;;;;;;;5018394;28;20653;-68
2021/07/21 12:40:10;;;;;;;14.82;8.77;;;;;;;;;;5020534;28;20186;-68
2021/07/21 12:42:36;;;;;;;12.45;8.45;;;;;;;;;;5013113;28;20804;-68
2021/07/21 12:45:34;;;;;;;13.85;9.02;;;;;;;;;;5023453;28;20273;-68
2021/07/21 12:48:01;;;;;;;11.80;8.00;;;;;;;;;;5019902;28;20210;-69
2021/07/21 12:50:33;;;;;;;11.95;8.60;;;;;;;;;;5021245;28;20550;-68
2021/07/21 12:53:06;;;;;;;10.48;8.35;;;;;;;;;;5013665;28;21630;-68
2021/07/21 12:55:40;;;;;;;10.52;8.57;;;;;;;;;;5031389;28;20185;-68
2021/07/21 12:58:08;;;;;;;11.00;7.95;;;;;;;;;;5008984;28;20203;-66
2021/07/21 13:00:39;;;;;;;11.88;8.25;;;;;;;;;;5027308;28;20193;-68
2021/07/21 13:03:12;;;;;;;11.93;8.98;;;;;;;;;;5024396;28;20210;-68
2021/07/21 13:05:50;;;;;;;11.07;8.45;;;;;;;;;;5026274;28;20216;-68
2021/07/21 13:08:26;;;;;;;11.05;8.55;;;;;;;;;;5018651;28;20201;-68
2021/07/21 13:11:11;;;;;;;9.73;7.75;;;;;;;;;;5030800;28;20237;-68
2021/07/21 13:13:38;;;;;;;11.70;9.32;;;;;;;;;;5019256;28;20735;-68
2021/07/21 13:16:06;;;;;;;11.00;8.52;;;;;;;;;;5028886;28;20623;-68
2021/07/21 13:18:44;;;;;;;11.90;9.05;;;;;;;;;;5022093;28;20247;-68
2021/07/21 13:21:26;;;;;;;11.63;8.82;;;;;;;;;;5018151;28;20576;-68
2021/07/21 13:23:57;;;;;;;11.55;8.90;;;;;;;;;;5026955;28;20239;-68
2021/07/21 13:26:23;;;;;;;10.57;8.13;;;;;;;;;;5017010;28;20241;-68
2021/07/21 13:28:51;;;;;;;12.77;9.90;;;;;;;;;;5029436;28;20193;-68
2021/07/21 13:31:23;;;;;;;12.50;8.73;;;;;;;;;;5015337;28;20193;-68
2021/07/21 13:33:52;;;;;;;13.52;9.15;;;;;;;;;;5031514;28;20227;-68
2021/07/21 13:36:20;;;;;;;12.35;9.40;;;;;;;;;;5015531;28;20190;-68
2021/07/21 13:39:03;;;;;;;11.93;9.02;;;;;;;;;;5027900;28;20181;-68
2021/07/21 13:41:36;;;;;;;13.73;9.80;;;;;;;;;;5013363;28;20276;-68
2021/07/21 13:44:07;;;;;;;13.10;8.63;;;;;;;;;;5027258;28;20298;-67
2021/07/21 13:46:47;;;;;;;12.48;9.00;;;;;;;;;;5017549;28;20196;-67
2021/07/21 13:49:13;;;;;;;16.58;8.80;;;;;;;;;;5030119;28;20300;-67
2021/07/21 13:51:43;;;;;;;10.80;8.80;;;;;;;;;;5019058;28;20194;-67
2021/07/21 13:54:10;;;;;;;10.57;8.43;;;;;;;;;;5025297;28;20239;-67
2021/07/21 13:56:36;;;;;;;11.65;8.40;;;;;;;;;;5016852;28;20189;-67
2021/07/21 13:59:03;;;;;;;12.65;9.25;;;;;;;;;;5029124;28;20195;-68
2021/07/21 14:01:29;;;;;;;10.82;8.52;;;;;;;;;;5012638;28;20182;-67
2021/07/21 14:03:58;;;;;;;13.50;8.88;;;;;;;;;;5028441;28;20583;-67
2021/07/21 14:06:23;;;;;;;12.98;8.32;;;;;;;;;;5016157;28;20245;-67
2021/07/21 14:08:49;;;;;;;15.98;8.98;;;;;;;;;;5022257;28;20178;-67
2021/07/21 14:11:14;;;;;;;10.90;8.50;;;;;;;;;;5018277;28;20273;-68
2021/07/21 14:13:39;;;;;;;10.95;7.78;;;;;;;;;;5017268;28;20265;-67
2021/07/21 14:16:05;;;;;;;11.85;8.45;;;;;;;;;;5020921;28;20225;-67
2021/07/21 14:18:30;;;;;;;11.90;8.43;;;;;;;;;;5022928;28;20552;-67
2021/07/21 14:20:55;;;;;;;11.20;8.57;;;;;;;;;;5038929;28;20188;-67
2021/07/21 14:23:21;;;;;;;14.77;9.75;;;;;;;;;;5023985;28;20550;-67
2021/07/21 14:25:48;;;;;;;11.38;8.70;;;;;;;;;;5026605;28;20190;-67
2021/07/21 14:28:14;;;;;;;13.15;9.23;;;;;;;;;;5008572;28;20218;-67
2021/07/21 14:30:40;;;;;;;11.85;8.98;;;;;;;;;;5018705;28;20194;-67
2021/07/21 14:33:05;;;;;;;11.38;8.65;;;;;;;;;;5013890;28;20190;-67
2021/07/21 14:35:33;;;;;;;12.90;8.30;;;;;;;;;;5025477;28;20549;-67